Baltica — 9HA2607 — position and weather

sailwx.info

Track history (hours):
 
Tides and Currents Weather Stations Pressure Air Temp Water Temp Dewpoint Dewpoint Depression Visibility Wind Speed Wind Dir Waves Ship Positions

Baltica

Last reported at 2014-Dec-22 22:33 UTC. Time now 2014-Dec-22 23:27 UTC.
Position N 60°29' E 026°57'.

Length 157 m; draft 6.7 m.

Type: Cargo ship. MMSI: 215013000.

Date/timePositionNaut miles runAvg speedWind from/ knotsBaromVisibWave heightAir tempDewpointWater temp
2014-Dec-22 22:33N 60°29' E 026°57'0 0.0
2014-Dec-22 21:34N 60°29' E 026°57'0 0.0
2014-Dec-22 20:33N 60°29' E 026°57'0 0.0
2014-Dec-22 19:33N 60°29' E 026°57'0 0.0
2014-Dec-22 18:33N 60°29' E 026°57'0 0.0
2014-Dec-22 17:33N 60°29' E 026°57'0 0.0
2014-Dec-22 16:33N 60°29' E 026°57'0 0.0
2014-Dec-22 15:33N 60°29' E 026°57'0 0.0
2014-Dec-22 14:33N 60°29' E 026°57'0 0.0
2014-Dec-22 13:33N 60°29' E 026°57'0 0.0
2014-Dec-22 12:33N 60°29' E 026°57'0 0.0
2014-Dec-22 11:33N 60°29' E 026°57'0 0.0
2014-Dec-22 10:33N 60°29' E 026°57'0 0.0
2014-Dec-22 09:33N 60°29' E 026°57'0 0.0
2014-Dec-22 08:34N 60°29' E 026°57'0 0.0
2014-Dec-22 07:33N 60°29' E 026°57'0 0.0
2014-Dec-22 06:33N 60°29' E 026°57'0 0.0
2014-Dec-22 05:33N 60°29' E 026°57'0 0.0
2014-Dec-22 04:33N 60°29' E 026°57'0 0.0
2014-Dec-22 03:33N 60°29' E 026°57'0 0.0
2014-Dec-22 02:33N 60°29' E 026°57'0 0.0
2014-Dec-22 01:33N 60°29' E 026°57'0 0.0
2014-Dec-22 00:33N 60°29' E 026°57'0 0.0
2014-Dec-21 23:33N 60°29' E 026°57'0 0.0
2014-Dec-21 22:33N 60°29' E 026°57'0 0.0
2014-Dec-21 21:33N 60°29' E 026°57'0 0.0
2014-Dec-21 20:34N 60°29' E 026°57'0 0.0
2014-Dec-21 19:33N 60°29' E 026°57'0 0.0
2014-Dec-21 18:33N 60°29' E 026°57'0 0.0
2014-Dec-21 17:34N 60°29' E 026°57'0 0.0
2014-Dec-21 16:33N 60°29' E 026°57'0 0.0
2014-Dec-21 15:33N 60°29' E 026°57'0 0.0
2014-Dec-21 14:34N 60°29' E 026°57'0 0.0
2014-Dec-21 13:34N 60°29' E 026°57'0 0.0
2014-Dec-21 12:33N 60°29' E 026°57'0 0.0
2014-Dec-21 11:33N 60°29' E 026°57'0 0.0
2014-Dec-21 10:34N 60°29' E 026°57'0 0.0
2014-Dec-21 09:33N 60°29' E 026°57'0 0.0
2014-Dec-21 08:33N 60°29' E 026°57'0 0.0
2014-Dec-21 07:33N 60°29' E 026°57'0 0.0
2014-Dec-21 06:34N 60°29' E 026°57'0 0.0
2014-Dec-21 05:34N 60°29' E 026°57'0 0.0
2014-Dec-21 04:33N 60°29' E 026°57'1 0.6
2014-Dec-21 03:34N 60°29' E 026°58'1313.4
2014-Dec-21 02:33N 60°17' E 027°12'8813.7
2014-Dec-20 20:08N 59°55' E 030°03'4 7.5
2014-Dec-20 19:33N 59°53' E 030°12'1 0.1
2014-Dec-20 09:23N 59°54' E 030°13'0 0.0
2014-Dec-20 08:17N 59°54' E 030°13'0 0.0
2014-Dec-20 07:17N 59°54' E 030°13'0 0.0
2014-Dec-20 06:29N 59°54' E 030°13'1 0.4
2014-Dec-20 03:31N 59°53' E 030°11'9812.3
2014-Dec-19 19:33N 59°59' E 026°56'1313.6
2014-Dec-19 18:33N 59°58' E 026°29'5714.2
2014-Dec-19 14:33N 59°45' E 024°39'1414.2
2014-Dec-19 13:33N 59°41' E 024°11'37512.9
2014-Dec-18 08:33N 55°37' E 015°21'1111.5
2014-Dec-18 07:33N 55°32' E 015°03'1212.2
2014-Dec-18 06:33N 55°26' E 014°44'1211.6
2014-Dec-18 05:33N 55°17' E 014°30'1211.5
2014-Dec-18 04:33N 55°08' E 014°18'1110.8
2014-Dec-18 03:33N 55°01' E 014°04'1111.1
2014-Dec-18 02:33N 54°58' E 013°46'1110.9
2014-Dec-18 01:30N 54°54' E 013°27'4410.9
2014-Dec-17 21:30N 54°35' E 012°19'1111.2
2014-Dec-17 20:29N 54°24' E 012°10'1111.4
2014-Dec-17 19:32N 54°19' E 011°54'1511.7
2014-Dec-17 18:16N 54°12' E 011°32'811.0
2014-Dec-17 17:33N 54°08' E 011°20'27 0.6
2014-Dec-16 00:07N 53°54' E 010°42'0 0.0
2014-Dec-15 23:33N 53°54' E 010°42'0 0.0
2014-Dec-15 22:34N 53°54' E 010°42'0 0.0
2014-Dec-15 21:33N 53°54' E 010°42'0 0.0
2014-Dec-15 20:33N 53°54' E 010°42'0 0.0
2014-Dec-15 19:33N 53°54' E 010°42'0 0.0
2014-Dec-15 18:33N 53°54' E 010°42'0 0.0
2014-Dec-15 17:33N 53°54' E 010°42'0 0.0
2014-Dec-15 16:33N 53°54' E 010°42'0 0.0
2014-Dec-15 15:33N 53°54' E 010°42'0 0.0
2014-Dec-15 14:33N 53°54' E 010°42'0 0.0
2014-Dec-15 13:33N 53°54' E 010°42'0 0.0
2014-Dec-15 12:30N 53°54' E 010°42'0 0.0
2014-Dec-15 11:33N 53°54' E 010°42'0 0.3
2014-Dec-15 10:32N 53°54' E 010°42'5 4.5
2014-Dec-15 09:29N 53°54' E 010°50'7 7.9
2014-Dec-15 08:33N 54°00' E 010°57'1313.5
2014-Dec-15 07:34N 54°09' E 011°14'1514.3
2014-Dec-15 06:30N 54°17' E 011°35'1414.2
2014-Dec-15 05:29N 54°24' E 011°56'2913.4
2014-Dec-15 03:20N 54°44' E 012°34'1514.0
2014-Dec-15 02:17N 54°50' E 012°56'2514.4
2014-Dec-15 00:33N 54°59' E 013°37'1414.3
2014-Dec-14 23:33N 55°04' E 014°00'1414.3
2014-Dec-14 22:34N 55°14' E 014°18'1514.8
2014-Dec-14 21:33N 55°25' E 014°35'1514.9
2014-Dec-14 20:33N 55°33' E 014°57'1514.2
2014-Dec-14 19:31N 55°40' E 015°20'34414.2
2014-Dec-13 19:15N 59°36' E 023°07'1015.0
2014-Dec-13 18:33N 59°39' E 023°26'1515.0
2014-Dec-13 17:33N 59°43' E 023°56'1515.2
2014-Dec-13 16:33N 59°46' E 024°25'5814.6
2014-Dec-13 12:33N 60°06' E 026°14'1413.8
2014-Dec-13 11:33N 60°17' E 026°31'1515.4
2014-Dec-13 10:34N 60°26' E 026°57'3 3.2
2014-Dec-13 09:33N 60°29' E 026°57'0 0.0
2014-Dec-13 08:33N 60°29' E 026°57'0 0.0
2014-Dec-13 07:33N 60°29' E 026°57'0 0.0
2014-Dec-13 06:33N 60°29' E 026°57'0 0.0
2014-Dec-13 05:30N 60°29' E 026°57'0 0.0
2014-Dec-13 04:33N 60°29' E 026°57'0 0.0
2014-Dec-13 03:34N 60°29' E 026°57'0 0.0
2014-Dec-13 02:34N 60°29' E 026°57'0 0.0
2014-Dec-13 01:30N 60°29' E 026°57'0 0.0
2014-Dec-13 00:30N 60°29' E 026°57'0 0.0
2014-Dec-12 23:33N 60°29' E 026°57'0 0.0
2014-Dec-12 22:33N 60°29' E 026°57'  
Track history (hours):
 
Tides and Currents Weather Stations Pressure Air Temp Water Temp Dewpoint Dewpoint Depression Visibility Wind Speed Wind Dir Waves Ship Positions

Baltica

Last reported at 2014-Dec-22 22:33 UTC. Time now 2014-Dec-22 23:27 UTC.
Position N 60°29' E 026°57'.

Length 157 m; draft 6.7 m.

Type: Cargo ship. MMSI: 215013000.

Date/timePositionNaut miles runAvg speedWind from/ knotsBaromVisibWave heightAir tempDewpointWater temp
2014-Dec-22 22:33N 60°29' E 026°57'0 0.0
2014-Dec-22 21:34N 60°29' E 026°57'0 0.0
2014-Dec-22 20:33N 60°29' E 026°57'0 0.0
2014-Dec-22 19:33N 60°29' E 026°57'0 0.0
2014-Dec-22 18:33N 60°29' E 026°57'0 0.0
2014-Dec-22 17:33N 60°29' E 026°57'0 0.0
2014-Dec-22 16:33N 60°29' E 026°57'0 0.0
2014-Dec-22 15:33N 60°29' E 026°57'0 0.0
2014-Dec-22 14:33N 60°29' E 026°57'0 0.0
2014-Dec-22 13:33N 60°29' E 026°57'0 0.0
2014-Dec-22 12:33N 60°29' E 026°57'0 0.0
2014-Dec-22 11:33N 60°29' E 026°57'0 0.0
2014-Dec-22 10:33N 60°29' E 026°57'0 0.0
2014-Dec-22 09:33N 60°29' E 026°57'0 0.0
2014-Dec-22 08:34N 60°29' E 026°57'0 0.0
2014-Dec-22 07:33N 60°29' E 026°57'0 0.0
2014-Dec-22 06:33N 60°29' E 026°57'0 0.0
2014-Dec-22 05:33N 60°29' E 026°57'0 0.0
2014-Dec-22 04:33N 60°29' E 026°57'0 0.0
2014-Dec-22 03:33N 60°29' E 026°57'0 0.0
2014-Dec-22 02:33N 60°29' E 026°57'0 0.0
2014-Dec-22 01:33N 60°29' E 026°57'0 0.0
2014-Dec-22 00:33N 60°29' E 026°57'0 0.0
2014-Dec-21 23:33N 60°29' E 026°57'0 0.0
2014-Dec-21 22:33N 60°29' E 026°57'0 0.0
2014-Dec-21 21:33N 60°29' E 026°57'0 0.0
2014-Dec-21 20:34N 60°29' E 026°57'0 0.0
2014-Dec-21 19:33N 60°29' E 026°57'0 0.0
2014-Dec-21 18:33N 60°29' E 026°57'0 0.0
2014-Dec-21 17:34N 60°29' E 026°57'0 0.0
2014-Dec-21 16:33N 60°29' E 026°57'0 0.0
2014-Dec-21 15:33N 60°29' E 026°57'0 0.0
2014-Dec-21 14:34N 60°29' E 026°57'0 0.0
2014-Dec-21 13:34N 60°29' E 026°57'0 0.0
2014-Dec-21 12:33N 60°29' E 026°57'0 0.0
2014-Dec-21 11:33N 60°29' E 026°57'0 0.0
2014-Dec-21 10:34N 60°29' E 026°57'0 0.0
2014-Dec-21 09:33N 60°29' E 026°57'0 0.0
2014-Dec-21 08:33N 60°29' E 026°57'0 0.0
2014-Dec-21 07:33N 60°29' E 026°57'0 0.0
2014-Dec-21 06:34N 60°29' E 026°57'0 0.0
2014-Dec-21 05:34N 60°29' E 026°57'0 0.0
2014-Dec-21 04:33N 60°29' E 026°57'1 0.6
2014-Dec-21 03:34N 60°29' E 026°58'1313.4
2014-Dec-21 02:33N 60°17' E 027°12'8813.7
2014-Dec-20 20:08N 59°55' E 030°03'4 7.5
2014-Dec-20 19:33N 59°53' E 030°12'1 0.1
2014-Dec-20 09:23N 59°54' E 030°13'0 0.0
2014-Dec-20 08:17N 59°54' E 030°13'0 0.0
2014-Dec-20 07:17N 59°54' E 030°13'0 0.0
2014-Dec-20 06:29N 59°54' E 030°13'1 0.4
2014-Dec-20 03:31N 59°53' E 030°11'9812.3
2014-Dec-19 19:33N 59°59' E 026°56'1313.6
2014-Dec-19 18:33N 59°58' E 026°29'5714.2
2014-Dec-19 14:33N 59°45' E 024°39'1414.2
2014-Dec-19 13:33N 59°41' E 024°11'37512.9
2014-Dec-18 08:33N 55°37' E 015°21'1111.5
2014-Dec-18 07:33N 55°32' E 015°03'1212.2
2014-Dec-18 06:33N 55°26' E 014°44'1211.6
2014-Dec-18 05:33N 55°17' E 014°30'1211.5
2014-Dec-18 04:33N 55°08' E 014°18'1110.8
2014-Dec-18 03:33N 55°01' E 014°04'1111.1
2014-Dec-18 02:33N 54°58' E 013°46'1110.9
2014-Dec-18 01:30N 54°54' E 013°27'4410.9
2014-Dec-17 21:30N 54°35' E 012°19'1111.2
2014-Dec-17 20:29N 54°24' E 012°10'1111.4
2014-Dec-17 19:32N 54°19' E 011°54'1511.7
2014-Dec-17 18:16N 54°12' E 011°32'811.0
2014-Dec-17 17:33N 54°08' E 011°20'27 0.6
2014-Dec-16 00:07N 53°54' E 010°42'0 0.0
2014-Dec-15 23:33N 53°54' E 010°42'0 0.0
2014-Dec-15 22:34N 53°54' E 010°42'0 0.0
2014-Dec-15 21:33N 53°54' E 010°42'0 0.0
2014-Dec-15 20:33N 53°54' E 010°42'0 0.0
2014-Dec-15 19:33N 53°54' E 010°42'0 0.0
2014-Dec-15 18:33N 53°54' E 010°42'0 0.0
2014-Dec-15 17:33N 53°54' E 010°42'0 0.0
2014-Dec-15 16:33N 53°54' E 010°42'0 0.0
2014-Dec-15 15:33N 53°54' E 010°42'0 0.0
2014-Dec-15 14:33N 53°54' E 010°42'0 0.0
2014-Dec-15 13:33N 53°54' E 010°42'0 0.0
2014-Dec-15 12:30N 53°54' E 010°42'0 0.0
2014-Dec-15 11:33N 53°54' E 010°42'0 0.3
2014-Dec-15 10:32N 53°54' E 010°42'5 4.5
2014-Dec-15 09:29N 53°54' E 010°50'7 7.9
2014-Dec-15 08:33N 54°00' E 010°57'1313.5
2014-Dec-15 07:34N 54°09' E 011°14'1514.3
2014-Dec-15 06:30N 54°17' E 011°35'1414.2
2014-Dec-15 05:29N 54°24' E 011°56'2913.4
2014-Dec-15 03:20N 54°44' E 012°34'1514.0
2014-Dec-15 02:17N 54°50' E 012°56'2514.4
2014-Dec-15 00:33N 54°59' E 013°37'1414.3
2014-Dec-14 23:33N 55°04' E 014°00'1414.3
2014-Dec-14 22:34N 55°14' E 014°18'1514.8
2014-Dec-14 21:33N 55°25' E 014°35'1514.9
2014-Dec-14 20:33N 55°33' E 014°57'1514.2
2014-Dec-14 19:31N 55°40' E 015°20'34414.2
2014-Dec-13 19:15N 59°36' E 023°07'1015.0
2014-Dec-13 18:33N 59°39' E 023°26'1515.0
2014-Dec-13 17:33N 59°43' E 023°56'1515.2
2014-Dec-13 16:33N 59°46' E 024°25'5814.6
2014-Dec-13 12:33N 60°06' E 026°14'1413.8
2014-Dec-13 11:33N 60°17' E 026°31'1515.4
2014-Dec-13 10:34N 60°26' E 026°57'3 3.2
2014-Dec-13 09:33N 60°29' E 026°57'0 0.0
2014-Dec-13 08:33N 60°29' E 026°57'0 0.0
2014-Dec-13 07:33N 60°29' E 026°57'0 0.0
2014-Dec-13 06:33N 60°29' E 026°57'0 0.0
2014-Dec-13 05:30N 60°29' E 026°57'0 0.0
2014-Dec-13 04:33N 60°29' E 026°57'0 0.0
2014-Dec-13 03:34N 60°29' E 026°57'0 0.0
2014-Dec-13 02:34N 60°29' E 026°57'0 0.0
2014-Dec-13 01:30N 60°29' E 026°57'0 0.0
2014-Dec-13 00:30N 60°29' E 026°57'0 0.0
2014-Dec-12 23:33N 60°29' E 026°57'0 0.0
2014-Dec-12 22:33N 60°29' E 026°57'  

Dump ship's entire track history